createdAt,value
2022-09-06T00:00:22.617Z,3.9
2022-09-06T00:05:22.376Z,3.3
2022-09-06T00:10:22.245Z,4.9
2022-09-06T00:15:22.547Z,5.8
2022-09-06T00:20:22.300Z,3.0
2022-09-06T00:25:22.322Z,3.3
2022-09-06T00:30:22.468Z,2.8
2022-09-06T00:35:22.176Z,4.2
2022-09-06T00:40:22.175Z,3.6
2022-09-06T00:45:22.386Z,3.4
2022-09-06T00:50:22.190Z,2.4
2022-09-06T00:55:22.163Z,2.5
2022-09-06T01:00:22.273Z,8.6
2022-09-06T01:05:22.201Z,3.7
2022-09-06T01:10:22.141Z,3.3
2022-09-06T01:15:22.297Z,4.6
2022-09-06T01:20:22.138Z,3.0
2022-09-06T01:25:22.099Z,3.1
2022-09-06T01:30:22.304Z,5.5
2022-09-06T01:35:22.111Z,5.3
2022-09-06T01:40:22.072Z,3.4
2022-09-06T01:45:22.382Z,6.5
2022-09-06T01:50:22.075Z,4.7
2022-09-06T01:55:22.302Z,3.6
2022-09-06T02:00:22.248Z,3.2
2022-09-06T02:05:22.198Z,3.4
2022-09-06T02:10:22.112Z,5.5
2022-09-06T02:15:22.104Z,2.9
2022-09-06T02:20:22.097Z,4.2
2022-09-06T02:25:22.079Z,3.9
2022-09-06T02:30:22.243Z,2.8
2022-09-06T02:35:22.134Z,2.9
2022-09-06T02:40:21.962Z,3.1
2022-09-06T02:45:22.280Z,3.6
2022-09-06T02:50:22.004Z,3.3
2022-09-06T02:55:22.080Z,4.7
2022-09-06T03:00:22.682Z,4.9
2022-09-06T03:05:22.084Z,2.9
2022-09-06T03:10:22.208Z,7.4
2022-09-06T03:15:21.948Z,4.1
2022-09-06T03:20:21.942Z,4.4
2022-09-06T03:25:23.046Z,4.0
2022-09-06T03:30:21.996Z,3.2
2022-09-06T03:35:21.953Z,3.1
2022-09-06T03:40:21.861Z,3.2
2022-09-06T03:45:22.127Z,5.8
2022-09-06T03:50:21.899Z,3.5
2022-09-06T03:55:21.868Z,3.4
2022-09-06T04:00:21.779Z,3.8
2022-09-06T04:05:21.901Z,5.7
2022-09-06T04:10:21.803Z,4.4
2022-09-06T04:15:22.190Z,3.3
2022-09-06T04:20:21.757Z,5.1
2022-09-06T04:25:21.827Z,14.4
2022-09-06T04:30:21.981Z,4.2
2022-09-06T04:35:21.820Z,4.6
2022-09-06T04:40:21.869Z,6.6
2022-09-06T04:45:22.059Z,5.4
2022-09-06T04:50:21.783Z,6.6
2022-09-06T04:55:21.723Z,4.5
2022-09-06T05:00:21.880Z,5.3
2022-09-06T05:05:21.759Z,4.0
2022-09-06T05:10:21.883Z,5.6
2022-09-06T05:15:21.956Z,4.1
2022-09-06T05:20:21.682Z,4.7
2022-09-06T05:25:21.723Z,5.3
2022-09-06T05:30:21.839Z,5.4
2022-09-06T05:35:21.717Z,5.2
2022-09-06T05:40:21.673Z,7.4
2022-09-06T05:50:21.778Z,7.1
2022-09-06T05:55:21.836Z,4.1
2022-09-06T06:05:21.748Z,6.6
2022-09-06T06:10:21.725Z,5.7
2022-09-06T06:15:21.975Z,4.8
2022-09-06T06:20:21.636Z,5.9
2022-09-06T06:25:22.030Z,7.5
2022-09-06T06:30:21.884Z,6.6
2022-09-06T06:35:21.694Z,6.3
2022-09-06T06:40:21.537Z,9.4
2022-09-06T06:45:21.795Z,5.3
2022-09-06T06:50:21.658Z,5.5
2022-09-06T06:55:21.678Z,8.1
2022-09-06T07:00:24.047Z,3.8
2022-09-06T07:10:35.447Z,3.7
2022-09-06T07:15:21.762Z,4.9
2022-09-06T07:20:21.647Z,5.2
2022-09-06T07:25:21.918Z,4.4
2022-09-06T07:30:21.921Z,5.6
2022-09-06T07:35:21.619Z,4.1
2022-09-06T07:40:21.709Z,6.9
2022-09-06T07:45:21.758Z,4.5
2022-09-06T07:50:49.631Z,6.2
2022-09-06T07:55:21.543Z,6.5
2022-09-06T08:00:21.650Z,3.3
2022-09-06T08:10:22.056Z,4.5
2022-09-06T08:15:23.668Z,5.9
2022-09-06T08:20:21.572Z,3.1
2022-09-06T08:25:21.773Z,4.2
2022-09-06T08:30:21.796Z,4.3
2022-09-06T08:35:21.472Z,4.7
2022-09-06T08:40:21.506Z,5.2
2022-09-06T08:45:21.779Z,4.6
2022-09-06T08:50:21.443Z,4.3
2022-09-06T08:55:21.448Z,3.6
2022-09-06T09:00:21.557Z,3.9
2022-09-06T09:05:21.553Z,5.2
2022-09-06T09:10:21.410Z,4.7
2022-09-06T09:15:21.992Z,4.7
2022-09-06T09:20:21.333Z,6.2
2022-09-06T09:25:21.424Z,10.5
2022-09-06T09:30:48.266Z,9.8
2022-09-06T09:35:21.631Z,7.5
2022-09-06T09:40:21.327Z,4.5
2022-09-06T09:45:21.758Z,6.9
2022-09-06T09:50:21.415Z,9.5
2022-09-06T09:55:21.621Z,5.7
2022-09-06T10:00:21.872Z,3.7
2022-09-06T10:05:21.652Z,7.4
2022-09-06T10:10:21.512Z,3.0
2022-09-06T10:15:21.515Z,3.2
2022-09-06T10:20:21.258Z,11.0
2022-09-06T10:25:21.469Z,2.9
2022-09-06T10:30:21.497Z,2.8
2022-09-06T10:35:21.545Z,3.3
2022-09-06T10:40:21.675Z,4.2
2022-09-06T10:45:21.583Z,8.3
2022-09-06T10:50:21.528Z,3.0
2022-09-06T10:55:21.411Z,5.5
2022-09-06T11:00:21.423Z,4.3
2022-09-06T11:10:21.284Z,8.1
2022-09-06T11:15:21.443Z,7.3
2022-09-06T11:20:21.270Z,3.1
2022-09-06T11:25:21.329Z,3.3
2022-09-06T11:30:21.406Z,3.5
2022-09-06T11:35:21.304Z,3.8
2022-09-06T11:40:29.014Z,3.7
2022-09-06T11:45:21.518Z,4.2
2022-09-06T11:50:21.257Z,5.6
2022-09-06T11:55:22.922Z,3.9
2022-09-06T12:00:21.472Z,7.8
2022-09-06T12:05:21.488Z,3.8
2022-09-06T12:10:21.163Z,5.2
2022-09-06T12:15:21.617Z,3.8
2022-09-06T12:20:21.112Z,4.0
2022-09-06T12:25:21.358Z,5.0
2022-09-06T12:30:21.355Z,3.9
2022-09-06T12:40:21.107Z,5.4
2022-09-06T12:45:26.567Z,4.3
2022-09-06T12:50:21.302Z,3.0
2022-09-06T12:55:21.051Z,4.3
2022-09-06T13:00:21.587Z,4.9
2022-09-06T13:05:21.172Z,3.8
2022-09-06T13:10:21.146Z,4.1
2022-09-06T13:15:21.059Z,4.1
2022-09-06T13:20:21.834Z,3.7
2022-09-06T13:25:21.247Z,5.0
2022-09-06T13:30:21.322Z,3.9
2022-09-06T13:35:21.290Z,5.7
2022-09-06T13:40:21.033Z,4.3
2022-09-06T13:45:21.022Z,3.7
2022-09-06T13:50:24.656Z,4.6
2022-09-06T13:55:21.180Z,4.6
2022-09-06T14:00:20.998Z,6.1
2022-09-06T14:05:21.133Z,4.9
2022-09-06T14:10:20.980Z,5.3
2022-09-06T14:15:20.982Z,5.3
2022-09-06T14:20:21.083Z,5.6
2022-09-06T14:25:21.250Z,4.0
2022-09-06T14:30:20.979Z,6.1
2022-09-06T14:35:20.919Z,4.0
2022-09-06T14:40:21.162Z,5.5
2022-09-06T14:45:20.959Z,4.6
2022-09-06T14:50:20.965Z,4.8
2022-09-06T14:55:21.081Z,5.4
2022-09-06T15:00:20.899Z,4.7
2022-09-06T15:05:21.018Z,3.9
2022-09-06T15:10:21.174Z,8.7
2022-09-06T15:15:21.050Z,4.6
2022-09-06T15:20:20.918Z,5.3
2022-09-06T15:25:20.883Z,4.4
2022-09-06T15:30:20.861Z,4.7
2022-09-06T15:35:21.002Z,4.5
2022-09-06T15:40:20.999Z,6.8
2022-09-06T15:45:20.861Z,6.5
2022-09-06T15:50:40.616Z,6.4
2022-09-06T15:55:20.944Z,5.3
2022-09-06T16:00:20.821Z,4.4
2022-09-06T16:10:20.996Z,14.6
2022-09-06T16:15:20.928Z,5.9
2022-09-06T16:20:20.918Z,5.0
2022-09-06T16:25:21.135Z,5.2
2022-09-06T16:30:20.768Z,6.4
2022-09-06T17:20:21.590Z,7.6
2022-09-06T17:25:20.727Z,16.2
2022-09-06T17:30:20.762Z,17.9
2022-09-06T17:35:20.780Z,10.3
2022-09-06T17:40:20.797Z,10.6
2022-09-06T17:45:20.949Z,7.9
2022-09-06T17:50:21.288Z,8.4
2022-09-06T17:55:20.667Z,10.2
2022-09-06T18:00:22.240Z,13.2
2022-09-06T18:10:25.592Z,16.8
2022-09-06T18:15:26.251Z,22.6
2022-09-06T18:20:30.829Z,26.3
2022-09-06T18:25:24.661Z,20.2
2022-09-06T18:30:24.356Z,15.9
2022-09-06T18:35:25.577Z,14.7
2022-09-06T18:40:24.656Z,9.9
2022-09-06T18:45:24.171Z,9.7
2022-09-06T18:50:24.636Z,11.1
2022-09-06T18:55:24.369Z,10.5
2022-09-06T19:00:24.885Z,9.2
2022-09-06T19:10:24.648Z,8.0
2022-09-06T19:15:24.058Z,8.0
2022-09-06T19:20:23.975Z,6.0
2022-09-06T19:25:24.141Z,7.8
2022-09-06T19:30:24.041Z,10.1
2022-09-06T19:35:24.202Z,8.4
2022-09-06T19:40:24.137Z,7.9
2022-09-06T19:45:24.072Z,7.8
2022-09-06T19:50:24.112Z,8.4
2022-09-06T19:55:24.457Z,8.4
2022-09-06T20:00:24.084Z,8.8
2022-09-06T20:05:23.929Z,7.2
2022-09-06T20:10:24.249Z,7.3
2022-09-06T20:15:24.013Z,6.9
2022-09-06T20:20:23.925Z,5.1
2022-09-06T20:25:23.876Z,7.2
2022-09-06T20:30:23.916Z,6.9
2022-09-06T20:35:23.862Z,7.2
2022-09-06T20:40:24.063Z,5.3
2022-09-06T20:45:24.176Z,7.5
2022-09-06T20:50:23.931Z,6.3
2022-09-06T20:55:23.861Z,4.2
2022-09-06T21:00:23.873Z,5.5
2022-09-06T21:05:24.089Z,6.6
2022-09-06T21:10:24.041Z,7.2
2022-09-06T21:15:23.846Z,4.4
2022-09-06T21:20:23.869Z,5.3
2022-09-06T21:25:23.931Z,5.6
2022-09-06T21:30:23.814Z,4.8
2022-09-06T21:35:23.719Z,3.3
2022-09-06T21:40:24.014Z,4.0
2022-09-06T21:45:23.757Z,4.7
2022-09-06T21:50:23.763Z,4.1
2022-09-06T21:55:23.855Z,2.8
2022-09-06T22:00:23.771Z,4.7
2022-09-06T22:05:23.739Z,3.9
2022-09-06T22:10:24.012Z,6.4
2022-09-06T22:15:23.768Z,3.7
2022-09-06T22:20:24.024Z,4.2
2022-09-06T22:25:23.884Z,3.7
2022-09-06T22:30:25.682Z,3.8
2022-09-06T22:35:25.054Z,2.9
2022-09-06T22:40:23.880Z,7.6
2022-09-06T22:45:23.694Z,2.5
2022-09-06T22:50:23.648Z,2.5
2022-09-06T22:55:23.683Z,6.4
2022-09-06T23:00:23.916Z,2.7
2022-09-06T23:05:23.643Z,4.3
2022-09-06T23:10:23.762Z,2.8
2022-09-06T23:15:23.985Z,3.6
2022-09-06T23:20:23.881Z,5.1
2022-09-06T23:25:23.586Z,5.3
2022-09-06T23:30:23.763Z,3.3
2022-09-06T23:35:23.634Z,5.5
2022-09-06T23:40:23.710Z,4.4
2022-09-06T23:45:23.527Z,3.2
2022-09-06T23:50:23.669Z,5.0
2022-09-06T23:55:23.713Z,4.5
